Grays Chapel, North Carolina
Current Conditions -  °F | °C
As of 1:15 AM on Friday 19 Dec 2014 (Local Time) from K5W8 Reporting Station
Overcast Overcast  
Wind Chill: 37°   Ceiling: 7000
Heat Index: 37°   Visibility: 10mi
Dew Point: 35°   Wind: 0mph
Humidity: 90%   Direction: NA
Pressure: 30.09"   Gusts: NA
Location:  35.8068°N, 79.7101°W
Report Text: K5W8 190615Z AUTO 00000KT 10SM SCT060 OVC070 03/02 A3009 RMK AO2 T00300015
Loading
Personal Weather Stations






























Interactive Weather Map New forecast layout! Learn more

10-Day Weather Forecast

Advertisements
Track Severe Weather on mobile